Time;durP1;ratioP1;P1;durP2;ratioP2;P2;SDS_P1;SDS_P2;PMS_P1;PMS_P2;Temp;Humidity;BMP_temperature;BMP_pressure;BME280_temperature;BME280_humidity;BME280_pressure;Samples;Min_cycle;Max_cycle;Signal;HPM_P1;HPM_P2
2024/01/14 00:02:09;;;;;;;12.88;5.50;;;;;;;;;;4995640;28;20103;-78
2024/01/14 00:04:35;;;;;;;13.27;5.05;;;;;;;;;;4980572;28;20422;-78
2024/01/14 00:07:00;;;;;;;13.18;5.82;;;;;;;;;;4989901;28;20116;-77
2024/01/14 00:09:26;;;;;;;11.05;5.88;;;;;;;;;;4976528;28;20041;-78
2024/01/14 00:11:51;;;;;;;14.00;6.35;;;;;;;;;;4974692;28;20529;-78
2024/01/14 00:14:17;;;;;;;15.25;6.30;;;;;;;;;;4996548;28;20123;-78
2024/01/14 00:16:42;;;;;;;11.10;5.40;;;;;;;;;;5000227;28;20032;-78
2024/01/14 00:19:09;;;;;;;15.23;6.10;;;;;;;;;;4996724;28;20405;-78
2024/01/14 00:21:35;;;;;;;11.18;5.15;;;;;;;;;;4995780;28;20033;-78
2024/01/14 00:24:00;;;;;;;13.70;5.07;;;;;;;;;;5002839;28;20030;-78
2024/01/14 00:26:28;;;;;;;13.73;5.43;;;;;;;;;;4999783;28;20034;-77
2024/01/14 00:28:54;;;;;;;11.05;6.18;;;;;;;;;;4994191;28;20065;-78
2024/01/14 00:31:19;;;;;;;15.05;6.20;;;;;;;;;;4981737;28;20049;-78
2024/01/14 00:33:45;;;;;;;11.80;5.55;;;;;;;;;;4993034;28;20038;-78
2024/01/14 00:36:10;;;;;;;13.85;5.88;;;;;;;;;;4992751;28;20046;-78
2024/01/14 00:38:36;;;;;;;10.63;5.80;;;;;;;;;;4994164;28;20041;-78
2024/01/14 00:41:01;;;;;;;11.60;5.10;;;;;;;;;;4972756;28;20030;-78
2024/01/14 00:43:27;;;;;;;12.27;5.30;;;;;;;;;;5000748;28;20035;-78
2024/01/14 00:45:52;;;;;;;10.07;4.80;;;;;;;;;;4997203;28;20030;-78
2024/01/14 00:48:18;;;;;;;12.48;5.78;;;;;;;;;;4985114;28;20065;-78
2024/01/14 00:50:43;;;;;;;11.07;5.43;;;;;;;;;;4997873;28;20544;-78
2024/01/14 00:53:09;;;;;;;10.48;5.93;;;;;;;;;;4976666;28;20394;-78
2024/01/14 00:55:34;;;;;;;15.98;6.43;;;;;;;;;;4996965;28;20034;-78
2024/01/14 00:58:00;;;;;;;10.50;5.72;;;;;;;;;;5000837;28;20042;-78
2024/01/14 01:00:26;;;;;;;13.07;6.30;;;;;;;;;;4996472;28;20107;-77
2024/01/14 01:02:52;;;;;;;13.70;6.43;;;;;;;;;;4993549;28;20038;-78
2024/01/14 01:05:18;;;;;;;13.10;5.95;;;;;;;;;;4992993;28;20745;-78
2024/01/14 01:07:43;;;;;;;12.90;5.70;;;;;;;;;;4993718;28;20354;-78
2024/01/14 01:10:09;;;;;;;13.27;7.13;;;;;;;;;;4977692;28;20084;-78
2024/01/14 01:12:34;;;;;;;12.48;5.78;;;;;;;;;;4993452;28;20042;-78
2024/01/14 01:15:00;;;;;;;14.82;6.45;;;;;;;;;;4993563;28;20030;-78
2024/01/14 01:17:25;;;;;;;14.00;6.13;;;;;;;;;;5001697;28;20022;-79
2024/01/14 01:19:51;;;;;;;11.05;6.55;;;;;;;;;;4986322;28;20038;-79
2024/01/14 01:22:16;;;;;;;14.07;6.53;;;;;;;;;;4996409;28;20665;-79
2024/01/14 01:24:42;;;;;;;15.88;6.30;;;;;;;;;;4998067;28;20396;-79
2024/01/14 01:27:07;;;;;;;13.98;6.57;;;;;;;;;;4993234;28;20529;-79
2024/01/14 01:29:33;;;;;;;13.77;7.03;;;;;;;;;;4993844;28;20053;-78
2024/01/14 01:31:58;;;;;;;18.55;7.50;;;;;;;;;;4992051;28;20042;-78
2024/01/14 01:34:24;;;;;;;16.77;6.47;;;;;;;;;;4975340;28;20037;-78
2024/01/14 01:36:49;;;;;;;17.02;7.10;;;;;;;;;;4991292;28;20129;-78
2024/01/14 01:39:15;;;;;;;13.65;6.60;;;;;;;;;;4993153;28;20034;-78
2024/01/14 01:41:40;;;;;;;15.95;6.85;;;;;;;;;;4992483;28;20095;-78
2024/01/14 01:44:06;;;;;;;14.38;6.85;;;;;;;;;;4993267;28;20491;-78
2024/01/14 01:46:31;;;;;;;12.65;6.05;;;;;;;;;;4991875;28;20045;-78
2024/01/14 01:48:57;;;;;;;13.18;6.00;;;;;;;;;;4992952;28;20122;-78
2024/01/14 01:51:22;;;;;;;12.30;5.68;;;;;;;;;;4992354;28;20046;-78
2024/01/14 01:53:48;;;;;;;12.82;6.72;;;;;;;;;;4994569;28;20034;-78
2024/01/14 01:56:13;;;;;;;11.27;6.00;;;;;;;;;;4992846;28;20034;-78
2024/01/14 01:58:39;;;;;;;11.55;5.85;;;;;;;;;;4976032;28;20029;-78
2024/01/14 02:01:05;;;;;;;15.73;6.65;;;;;;;;;;4975946;28;20038;-78
2024/01/14 02:03:32;;;;;;;14.77;6.38;;;;;;;;;;5008093;28;20029;-78
2024/01/14 02:05:57;;;;;;;13.55;6.47;;;;;;;;;;4997772;28;20037;-78
2024/01/14 02:08:23;;;;;;;13.80;6.53;;;;;;;;;;4979433;28;20029;-78
2024/01/14 02:10:48;;;;;;;13.18;5.95;;;;;;;;;;4995902;28;20041;-79
2024/01/14 02:13:13;;;;;;;10.13;5.90;;;;;;;;;;4996648;28;20030;-78
2024/01/14 02:15:39;;;;;;;11.52;6.05;;;;;;;;;;4994898;28;20042;-79
2024/01/14 02:18:04;;;;;;;14.57;6.85;;;;;;;;;;4995754;28;20030;-77
2024/01/14 02:20:30;;;;;;;12.10;5.82;;;;;;;;;;4995279;28;20034;-78
2024/01/14 02:22:55;;;;;;;11.70;6.20;;;;;;;;;;4994580;28;20522;-77
2024/01/14 02:25:21;;;;;;;13.10;6.38;;;;;;;;;;4993727;28;20490;-78
2024/01/14 02:27:47;;;;;;;12.48;6.57;;;;;;;;;;4990794;28;20026;-77
2024/01/14 02:30:13;;;;;;;10.80;6.45;;;;;;;;;;4990468;28;20093;-78
2024/01/14 02:32:38;;;;;;;14.80;6.57;;;;;;;;;;4990659;28;20030;-78
2024/01/14 02:35:05;;;;;;;14.68;6.43;;;;;;;;;;4991825;28;20085;-78
2024/01/14 02:37:34;;;;;;;14.07;6.70;;;;;;;;;;4990921;28;20038;-78
2024/01/14 02:40:00;;;;;;;17.23;6.47;;;;;;;;;;5001470;28;20093;-78
2024/01/14 02:42:25;;;;;;;11.52;6.30;;;;;;;;;;4981625;28;20025;-77
2024/01/14 02:44:51;;;;;;;13.60;6.15;;;;;;;;;;4995060;28;20030;-78
2024/01/14 02:47:16;;;;;;;12.45;6.53;;;;;;;;;;5002240;28;20033;-78
2024/01/14 02:49:42;;;;;;;15.23;6.22;;;;;;;;;;4992231;28;20515;-79
2024/01/14 02:52:07;;;;;;;15.10;6.78;;;;;;;;;;4991475;28;20076;-78
2024/01/14 02:54:33;;;;;;;10.85;6.22;;;;;;;;;;4995792;28;20042;-78
2024/01/14 02:56:58;;;;;;;10.80;5.85;;;;;;;;;;4997351;28;20033;-78
2024/01/14 02:59:24;;;;;;;12.38;6.75;;;;;;;;;;4990241;28;20042;-79
2024/01/14 03:01:49;;;;;;;15.70;7.45;;;;;;;;;;4995385;28;20073;-78
2024/01/14 03:04:15;;;;;;;11.07;6.38;;;;;;;;;;4994767;28;20030;-78
2024/01/14 03:06:40;;;;;;;16.33;6.68;;;;;;;;;;4989626;28;20023;-77
2024/01/14 03:09:06;;;;;;;15.27;6.78;;;;;;;;;;5005785;28;20107;-78
2024/01/14 03:11:35;;;;;;;16.02;6.50;;;;;;;;;;4995773;28;20092;-78
2024/01/14 03:14:00;;;;;;;12.77;6.15;;;;;;;;;;5000052;28;20048;-78
2024/01/14 03:16:26;;;;;;;14.23;6.85;;;;;;;;;;4990007;28;20506;-78
2024/01/14 03:18:51;;;;;;;12.80;7.00;;;;;;;;;;4983808;28;20033;-78
2024/01/14 03:21:18;;;;;;;15.63;7.07;;;;;;;;;;4994484;28;20462;-78
2024/01/14 03:23:44;;;;;;;17.92;6.80;;;;;;;;;;4999011;28;20042;-78
2024/01/14 03:26:09;;;;;;;12.90;6.70;;;;;;;;;;4993922;28;20037;-80
2024/01/14 03:28:35;;;;;;;21.83;8.82;;;;;;;;;;4989348;28;20590;-79
2024/01/14 03:31:00;;;;;;;18.13;7.93;;;;;;;;;;4990675;28;20576;-79
2024/01/14 03:33:26;;;;;;;18.58;7.90;;;;;;;;;;4989104;28;20464;-78
2024/01/14 03:35:51;;;;;;;17.77;7.97;;;;;;;;;;4992913;28;20120;-78
2024/01/14 03:38:17;;;;;;;15.77;7.40;;;;;;;;;;4994349;28;20029;-78
2024/01/14 03:40:42;;;;;;;15.57;7.50;;;;;;;;;;4986073;28;20034;-78
2024/01/14 03:43:08;;;;;;;14.23;7.05;;;;;;;;;;5003887;28;20030;-78
2024/01/14 03:45:33;;;;;;;19.35;7.53;;;;;;;;;;5004886;28;20033;-79
2024/01/14 03:47:59;;;;;;;15.45;7.00;;;;;;;;;;5005070;28;20079;-79
2024/01/14 03:50:24;;;;;;;14.73;6.72;;;;;;;;;;5003472;28;20088;-79
2024/01/14 03:52:49;;;;;;;15.70;7.10;;;;;;;;;;5005891;28;20030;-79
2024/01/14 03:55:15;;;;;;;19.13;7.47;;;;;;;;;;4983318;28;20034;-79
2024/01/14 03:57:40;;;;;;;16.05;7.60;;;;;;;;;;4990432;28;20121;-79
2024/01/14 04:00:08;;;;;;;17.33;6.88;;;;;;;;;;4983767;28;20018;-77
2024/01/14 04:02:34;;;;;;;13.25;6.63;;;;;;;;;;4999631;28;20456;-77
2024/01/14 04:04:59;;;;;;;15.82;7.20;;;;;;;;;;4999469;28;20030;-78
2024/01/14 04:07:25;;;;;;;18.83;7.28;;;;;;;;;;5012384;28;20030;-78
2024/01/14 04:09:50;;;;;;;15.65;7.45;;;;;;;;;;4980826;28;20022;-77
2024/01/14 04:12:15;;;;;;;14.20;6.97;;;;;;;;;;4995591;28;20034;-78
2024/01/14 04:14:41;;;;;;;14.50;6.82;;;;;;;;;;5000449;28;20048;-79
2024/01/14 04:17:06;;;;;;;19.52;8.95;;;;;;;;;;4997957;28;20080;-78
2024/01/14 04:19:32;;;;;;;18.00;7.80;;;;;;;;;;4982051;28;20485;-78
2024/01/14 04:21:57;;;;;;;15.80;8.07;;;;;;;;;;4981100;28;20034;-78
2024/01/14 04:24:23;;;;;;;16.90;7.95;;;;;;;;;;5009365;28;20456;-78
2024/01/14 04:26:48;;;;;;;20.00;7.78;;;;;;;;;;4995265;28;20045;-78
2024/01/14 04:29:14;;;;;;;13.50;6.53;;;;;;;;;;4975995;28;20169;-78
2024/01/14 04:31:39;;;;;;;16.20;7.65;;;;;;;;;;4993246;28;20389;-79
2024/01/14 04:34:04;;;;;;;16.33;7.65;;;;;;;;;;4994058;28;20038;-78
2024/01/14 04:36:30;;;;;;;21.27;8.68;;;;;;;;;;4994071;28;20065;-79
2024/01/14 04:38:55;;;;;;;23.27;10.13;;;;;;;;;;4974474;28;20130;-78
2024/01/14 04:41:21;;;;;;;27.52;19.27;;;;;;;;;;5000058;28;20406;-78
2024/01/14 04:43:46;;;;;;;17.10;8.07;;;;;;;;;;4998797;28;20029;-77
2024/01/14 04:46:12;;;;;;;21.58;9.50;;;;;;;;;;5008998;28;20049;-77
2024/01/14 04:48:37;;;;;;;16.17;7.85;;;;;;;;;;5004732;28;20029;-79
2024/01/14 04:51:03;;;;;;;15.23;7.78;;;;;;;;;;4999310;28;20037;-79
2024/01/14 04:53:28;;;;;;;18.00;7.82;;;;;;;;;;4993931;28;20065;-79
2024/01/14 04:55:54;;;;;;;17.58;8.27;;;;;;;;;;4981786;28;20039;-78
2024/01/14 04:58:19;;;;;;;18.50;7.85;;;;;;;;;;4995950;28;20026;-78
2024/01/14 05:00:45;;;;;;;13.45;7.43;;;;;;;;;;4993019;28;20092;-78
2024/01/14 05:03:10;;;;;;;17.85;8.23;;;;;;;;;;5005141;28;20528;-78
2024/01/14 05:05:36;;;;;;;15.20;8.15;;;;;;;;;;4982367;28;20413;-78
2024/01/14 05:08:01;;;;;;;16.35;8.02;;;;;;;;;;5005179;28;20040;-79
2024/01/14 05:10:27;;;;;;;16.95;8.13;;;;;;;;;;4994518;28;20022;-79
2024/01/14 05:12:52;;;;;;;22.05;10.82;;;;;;;;;;4993087;28;20109;-78
2024/01/14 05:15:18;;;;;;;20.23;7.85;;;;;;;;;;4991830;28;20133;-79
2024/01/14 05:17:43;;;;;;;19.83;8.93;;;;;;;;;;5003056;28;20029;-79
2024/01/14 05:20:09;;;;;;;18.83;8.02;;;;;;;;;;4998117;28;20161;-79
2024/01/14 05:22:34;;;;;;;24.65;11.57;;;;;;;;;;5001743;28;20465;-79
2024/01/14 05:25:00;;;;;;;18.92;8.50;;;;;;;;;;4996706;28;20122;-79
2024/01/14 05:27:25;;;;;;;17.52;8.60;;;;;;;;;;4996458;28;20060;-79
2024/01/14 05:29:51;;;;;;;17.27;8.77;;;;;;;;;;4998542;28;20061;-79
2024/01/14 05:32:17;;;;;;;16.17;8.13;;;;;;;;;;5000302;28;20130;-79
2024/01/14 05:34:42;;;;;;;16.20;7.93;;;;;;;;;;4992061;28;20096;-79
2024/01/14 05:37:08;;;;;;;17.25;8.25;;;;;;;;;;4992269;28;20137;-79
2024/01/14 05:39:34;;;;;;;16.40;7.93;;;;;;;;;;4992493;28;20043;-79
2024/01/14 05:41:59;;;;;;;18.73;8.30;;;;;;;;;;4993961;28;20030;-79
2024/01/14 05:44:25;;;;;;;17.58;8.27;;;;;;;;;;4997351;28;20026;-79
2024/01/14 05:46:51;;;;;;;18.38;8.25;;;;;;;;;;5000840;28;20044;-79
2024/01/14 05:49:16;;;;;;;23.27;8.38;;;;;;;;;;4995915;28;20512;-79
2024/01/14 05:51:42;;;;;;;18.15;8.13;;;;;;;;;;5001667;28;20477;-79
2024/01/14 05:54:08;;;;;;;19.95;7.90;;;;;;;;;;4996814;28;20034;-79
2024/01/14 05:56:34;;;;;;;17.80;7.70;;;;;;;;;;5001347;28;20036;-78
2024/01/14 05:59:00;;;;;;;17.13;7.80;;;;;;;;;;4997626;28;20516;-79
2024/01/14 06:01:26;;;;;;;23.48;10.10;;;;;;;;;;4996971;28;20113;-77
2024/01/14 06:03:52;;;;;;;20.67;8.57;;;;;;;;;;4996316;28;20041;-77
2024/01/14 06:06:17;;;;;;;22.58;9.00;;;;;;;;;;4983802;28;20389;-78
2024/01/14 06:08:43;;;;;;;16.77;8.25;;;;;;;;;;4997934;28;20034;-78
2024/01/14 06:11:08;;;;;;;17.58;8.77;;;;;;;;;;4999008;28;20029;-78
2024/01/14 06:13:34;;;;;;;16.98;8.13;;;;;;;;;;5001507;28;20039;-78
2024/01/14 06:15:59;;;;;;;18.15;7.93;;;;;;;;;;5006936;28;20418;-78
2024/01/14 06:18:25;;;;;;;18.15;8.15;;;;;;;;;;4996202;28;20398;-78
2024/01/14 06:20:50;;;;;;;18.20;8.75;;;;;;;;;;4995477;28;20049;-78
2024/01/14 06:23:16;;;;;;;18.90;8.38;;;;;;;;;;4992286;28;20041;-79
2024/01/14 06:25:41;;;;;;;16.77;8.85;;;;;;;;;;4997727;28;20407;-78
2024/01/14 06:28:07;;;;;;;15.77;8.43;;;;;;;;;;4996458;28;20034;-78
2024/01/14 06:30:33;;;;;;;18.15;8.68;;;;;;;;;;4998315;28;20678;-78
2024/01/14 06:32:58;;;;;;;21.35;8.57;;;;;;;;;;4991420;28;20451;-78
2024/01/14 06:35:24;;;;;;;19.35;8.02;;;;;;;;;;5002537;28;20933;-78
2024/01/14 06:37:50;;;;;;;17.75;7.22;;;;;;;;;;4991194;28;20591;-78
2024/01/14 06:40:15;;;;;;;18.27;9.13;;;;;;;;;;4996213;28;20478;-79
2024/01/14 06:42:41;;;;;;;18.42;9.43;;;;;;;;;;4996022;28;20077;-80
2024/01/14 06:45:08;;;;;;;18.35;9.40;;;;;;;;;;4995148;28;20033;-77
2024/01/14 06:47:34;;;;;;;20.33;11.50;;;;;;;;;;4994563;28;20060;-78
2024/01/14 06:49:59;;;;;;;69.00;43.17;;;;;;;;;;4995924;28;20450;-78
2024/01/14 06:52:25;;;;;;;42.70;20.48;;;;;;;;;;4978825;28;20466;-79
2024/01/14 06:54:50;;;;;;;18.13;10.32;;;;;;;;;;4992340;28;20081;-80
2024/01/14 06:57:16;;;;;;;19.35;10.20;;;;;;;;;;4994158;28;20038;-79
2024/01/14 06:59:44;;;;;;;23.17;9.30;;;;;;;;;;4997914;28;20026;-79
2024/01/14 07:02:13;;;;;;;18.25;9.93;;;;;;;;;;4998264;28;20027;-79
2024/01/14 07:04:39;;;;;;;25.58;10.10;;;;;;;;;;4986678;28;20022;-80
2024/01/14 07:07:04;;;;;;;21.27;10.13;;;;;;;;;;4999872;28;20093;-78
2024/01/14 07:09:29;;;;;;;22.73;10.00;;;;;;;;;;4979399;28;20121;-79
2024/01/14 07:11:55;;;;;;;19.95;10.07;;;;;;;;;;4993246;28;20042;-78
2024/01/14 07:14:22;;;;;;;22.35;10.40;;;;;;;;;;4989879;28;20133;-78
2024/01/14 07:16:48;;;;;;;22.70;10.00;;;;;;;;;;4996032;28;20084;-79
2024/01/14 07:19:13;;;;;;;18.98;9.38;;;;;;;;;;4997526;28;20545;-79
2024/01/14 07:21:39;;;;;;;20.27;9.20;;;;;;;;;;4991804;28;20038;-79
2024/01/14 07:24:04;;;;;;;19.10;9.23;;;;;;;;;;4991524;28;20026;-79
2024/01/14 07:26:30;;;;;;;17.60;9.20;;;;;;;;;;4971748;28;20772;-79
2024/01/14 07:28:55;;;;;;;18.92;8.85;;;;;;;;;;4966618;28;20026;-82
2024/01/14 07:31:21;;;;;;;18.83;9.48;;;;;;;;;;4974565;28;20425;-79
2024/01/14 07:33:48;;;;;;;25.33;11.05;;;;;;;;;;4994328;28;20033;-80
2024/01/14 07:36:13;;;;;;;19.90;10.02;;;;;;;;;;4971244;28;20119;-81
2024/01/14 07:38:39;;;;;;;24.92;11.60;;;;;;;;;;4997199;28;20034;-81
2024/01/14 07:41:05;;;;;;;22.33;11.90;;;;;;;;;;4971048;28;20030;-80
2024/01/14 07:43:30;;;;;;;21.17;10.48;;;;;;;;;;4989187;28;20026;-78
2024/01/14 07:45:56;;;;;;;22.67;10.75;;;;;;;;;;4989721;28;20111;-79
2024/01/14 07:48:26;;;;;;;40.60;25.10;;;;;;;;;;4987624;28;20027;-79
2024/01/14 07:50:54;;;;;;;23.05;11.15;;;;;;;;;;4990483;28;20042;-80
2024/01/14 07:53:21;;;;;;;28.00;16.90;;;;;;;;;;4971182;28;20035;-79
2024/01/14 07:55:46;;;;;;;26.95;12.98;;;;;;;;;;4998252;28;21245;-78
2024/01/14 07:58:11;;;;;;;44.30;23.58;;;;;;;;;;4994514;28;20023;-79
2024/01/14 08:00:38;;;;;;;34.15;16.13;;;;;;;;;;4968018;28;20031;-79
2024/01/14 08:03:03;;;;;;;29.10;17.52;;;;;;;;;;4981437;28;20527;-78
2024/01/14 08:05:29;;;;;;;29.92;14.85;;;;;;;;;;5000159;28;20026;-79
2024/01/14 08:07:54;;;;;;;26.55;12.30;;;;;;;;;;4982737;28;20093;-78
2024/01/14 08:10:20;;;;;;;27.33;15.88;;;;;;;;;;4990384;28;20478;-79
2024/01/14 08:12:45;;;;;;;22.40;11.48;;;;;;;;;;4989613;28;20030;-77
2024/01/14 08:15:11;;;;;;;49.97;33.25;;;;;;;;;;4973053;28;20042;-78
2024/01/14 08:17:37;;;;;;;24.73;11.07;;;;;;;;;;4989834;28;20092;-78
2024/01/14 08:20:05;;;;;;;42.08;27.17;;;;;;;;;;4987540;28;20030;-78
2024/01/14 08:22:30;;;;;;;41.38;27.08;;;;;;;;;;4991230;28;20081;-79
2024/01/14 08:24:56;;;;;;;33.47;16.63;;;;;;;;;;4975624;28;20034;-78
2024/01/14 08:27:21;;;;;;;26.52;11.85;;;;;;;;;;4990615;28;20676;-79
2024/01/14 08:29:47;;;;;;;24.05;11.25;;;;;;;;;;5002884;28;20406;-81
2024/01/14 08:32:12;;;;;;;23.85;11.43;;;;;;;;;;4986253;28;20061;-80
2024/01/14 08:34:38;;;;;;;25.08;11.75;;;;;;;;;;4985106;28;20030;-80
2024/01/14 08:37:03;;;;;;;26.17;12.45;;;;;;;;;;4989873;28;20049;-80
2024/01/14 08:39:29;;;;;;;33.17;13.82;;;;;;;;;;4986797;28;20049;-80
2024/01/14 08:41:54;;;;;;;25.70;12.05;;;;;;;;;;4971059;28;20049;-80
2024/01/14 08:44:20;;;;;;;26.02;11.57;;;;;;;;;;4980827;28;20036;-80
2024/01/14 08:46:47;;;;;;;22.58;11.02;;;;;;;;;;4996630;28;20030;-80
2024/01/14 08:49:13;;;;;;;24.42;12.15;;;;;;;;;;4999016;28;20069;-81
2024/01/14 08:51:40;;;;;;;20.77;11.35;;;;;;;;;;4996133;28;20049;-79
2024/01/14 08:54:06;;;;;;;30.55;18.00;;;;;;;;;;5000234;28;20046;-79
2024/01/14 08:56:31;;;;;;;22.83;12.45;;;;;;;;;;4991377;28;20037;-79
2024/01/14 08:58:57;;;;;;;29.88;14.63;;;;;;;;;;4999417;28;20485;-78
2024/01/14 09:01:23;;;;;;;28.45;12.35;;;;;;;;;;4976898;28;20747;-78
2024/01/14 09:03:48;;;;;;;27.75;13.90;;;;;;;;;;4998927;28;20045;-79
2024/01/14 09:06:14;;;;;;;31.90;19.50;;;;;;;;;;4994514;28;20537;-79
2024/01/14 09:08:39;;;;;;;21.15;11.45;;;;;;;;;;5004633;28;20034;-79
2024/01/14 09:11:05;;;;;;;31.35;17.08;;;;;;;;;;4994710;28;20104;-79
2024/01/14 09:13:30;;;;;;;25.45;12.48;;;;;;;;;;4979551;28;20552;-78
2024/01/14 09:15:55;;;;;;;36.95;20.50;;;;;;;;;;4984886;28;20088;-79
2024/01/14 09:18:21;;;;;;;25.73;12.65;;;;;;;;;;4987223;28;20026;-79
2024/01/14 09:20:46;;;;;;;33.13;16.80;;;;;;;;;;4991995;28;20026;-80
2024/01/14 09:23:12;;;;;;;20.63;10.77;;;;;;;;;;4975713;28;20038;-80
2024/01/14 09:25:37;;;;;;;32.47;15.13;;;;;;;;;;4972339;28;20026;-79
2024/01/14 09:28:03;;;;;;;25.52;11.75;;;;;;;;;;4991224;28;20532;-79
2024/01/14 09:30:28;;;;;;;38.38;22.42;;;;;;;;;;4972244;28;20053;-80
2024/01/14 09:32:54;;;;;;;28.50;12.85;;;;;;;;;;4994248;28;20129;-79
2024/01/14 09:35:19;;;;;;;23.25;11.82;;;;;;;;;;4994292;28;20062;-80
2024/01/14 09:37:45;;;;;;;23.92;10.98;;;;;;;;;;4980901;28;20032;-80
2024/01/14 09:40:10;;;;;;;22.27;10.40;;;;;;;;;;4994431;28;20031;-80
2024/01/14 09:42:38;;;;;;;18.20;10.18;;;;;;;;;;4993853;28;20480;-79
2024/01/14 09:45:05;;;;;;;26.10;11.20;;;;;;;;;;4997851;28;20031;-80
2024/01/14 09:47:33;;;;;;;21.75;10.20;;;;;;;;;;4995485;28;20041;-80
2024/01/14 09:50:01;;;;;;;20.95;10.48;;;;;;;;;;4995383;28;20050;-79
2024/01/14 09:52:33;;;;;;;22.60;10.82;;;;;;;;;;4994556;28;20877;-79
2024/01/14 09:54:59;;;;;;;24.40;11.13;;;;;;;;;;4989354;28;20035;-79
2024/01/14 09:57:25;;;;;;;24.48;11.48;;;;;;;;;;5002469;28;20416;-79
2024/01/14 09:59:50;;;;;;;19.85;10.75;;;;;;;;;;4999110;28;20472;-79
2024/01/14 10:02:16;;;;;;;26.63;12.05;;;;;;;;;;4999110;28;20036;-79
2024/01/14 10:04:42;;;;;;;22.45;11.82;;;;;;;;;;5000298;28;20038;-80
2024/01/14 10:07:08;;;;;;;21.75;11.85;;;;;;;;;;5007109;28;20132;-80
2024/01/14 10:09:34;;;;;;;22.13;11.80;;;;;;;;;;4998488;28;20129;-79
2024/01/14 10:11:59;;;;;;;26.45;11.18;;;;;;;;;;4986940;28;20398;-80
2024/01/14 10:14:26;;;;;;;21.05;12.15;;;;;;;;;;4990876;28;20030;-79
2024/01/14 10:16:51;;;;;;;25.25;11.75;;;;;;;;;;4992117;28;20445;-79
2024/01/14 10:19:17;;;;;;;28.67;12.23;;;;;;;;;;4992849;28;20058;-78
2024/01/14 10:21:42;;;;;;;23.80;11.80;;;;;;;;;;4991645;28;20437;-79
2024/01/14 10:24:08;;;;;;;27.08;11.80;;;;;;;;;;4992876;28;20030;-79
2024/01/14 10:26:34;;;;;;;25.80;11.90;;;;;;;;;;4989380;28;20625;-78
2024/01/14 10:29:01;;;;;;;22.42;10.88;;;;;;;;;;4991896;28;20124;-79
2024/01/14 10:31:26;;;;;;;23.50;11.20;;;;;;;;;;4973497;28;20026;-79
2024/01/14 10:33:52;;;;;;;25.58;11.75;;;;;;;;;;4990083;28;20064;-79
2024/01/14 10:36:17;;;;;;;34.63;12.73;;;;;;;;;;4991300;28;20062;-80
2024/01/14 10:38:43;;;;;;;25.80;12.80;;;;;;;;;;4998009;28;20034;-81
2024/01/14 10:41:08;;;;;;;27.15;11.32;;;;;;;;;;4978727;28;20481;-80
2024/01/14 10:43:34;;;;;;;23.90;11.93;;;;;;;;;;4998022;28;20117;-81
2024/01/14 10:46:00;;;;;;;29.80;13.68;;;;;;;;;;4996509;28;20425;-78
2024/01/14 10:48:26;;;;;;;22.58;11.15;;;;;;;;;;4994375;28;20042;-78
2024/01/14 10:50:55;;;;;;;24.27;11.63;;;;;;;;;;4994261;28;20045;-79
2024/01/14 10:53:24;;;;;;;27.95;13.15;;;;;;;;;;4996703;28;20632;-80
2024/01/14 10:55:56;;;;;;;23.00;11.70;;;;;;;;;;4994870;28;20560;-80
2024/01/14 10:58:29;;;;;;;25.10;11.90;;;;;;;;;;4978030;28;20037;-81
2024/01/14 11:01:01;;;;;;;23.63;11.95;;;;;;;;;;4996102;28;20046;-80
2024/01/14 11:03:28;;;;;;;24.65;12.15;;;;;;;;;;4979877;28;20521;-80
2024/01/14 11:05:53;;;;;;;27.75;13.07;;;;;;;;;;4989708;28;20030;-80
2024/01/14 11:08:22;;;;;;;26.67;12.32;;;;;;;;;;4988849;28;20046;-80
2024/01/14 11:10:51;;;;;;;25.48;12.60;;;;;;;;;;4983454;28;20042;-80
2024/01/14 11:13:24;;;;;;;22.13;11.80;;;;;;;;;;4995701;28;20512;-79
2024/01/14 11:15:50;;;;;;;26.17;12.88;;;;;;;;;;4976326;28;20525;-79
2024/01/14 11:18:17;;;;;;;29.17;13.18;;;;;;;;;;4995410;28;20054;-79
2024/01/14 11:20:44;;;;;;;29.65;13.38;;;;;;;;;;4997987;28;20053;-80
2024/01/14 11:23:09;;;;;;;27.48;13.00;;;;;;;;;;5002265;28;20029;-79
2024/01/14 11:25:35;;;;;;;26.50;11.75;;;;;;;;;;4998925;28;20413;-80
2024/01/14 11:28:02;;;;;;;26.20;11.32;;;;;;;;;;4990349;28;20568;-79
2024/01/14 11:30:46;;;;;;;27.40;13.82;;;;;;;;;;4977074;28;20037;-78
2024/01/14 11:33:31;;;;;;;23.05;11.60;;;;;;;;;;4996569;28;20050;-78
2024/01/14 11:35:57;;;;;;;26.00;13.15;;;;;;;;;;4999319;28;20050;-81
2024/01/14 11:38:33;;;;;;;25.42;13.13;;;;;;;;;;4999453;28;20038;-80
2024/01/14 11:40:58;;;;;;;27.73;12.40;;;;;;;;;;4997070;28;20560;-80
2024/01/14 11:43:25;;;;;;;27.88;13.45;;;;;;;;;;4998476;28;20142;-81
2024/01/14 11:45:50;;;;;;;26.95;12.27;;;;;;;;;;4979123;28;20513;-79
2024/01/14 11:48:16;;;;;;;23.67;12.00;;;;;;;;;;4997913;28;20022;-79
2024/01/14 11:50:41;;;;;;;;;;;;;;;;;;4995759;28;20093;-80
2024/01/14 11:53:10;;;;;;;23.92;12.55;;;;;;;;;;4995950;28;19909;-80
2024/01/14 11:55:36;;;;;;;27.77;11.52;;;;;;;;;;4973107;28;20038;-80
2024/01/14 11:58:09;;;;;;;30.90;12.98;;;;;;;;;;4997055;28;20108;-79
2024/01/14 12:00:35;;;;;;;27.83;12.98;;;;;;;;;;4995197;28;20057;-79
2024/01/14 12:03:07;;;;;;;28.50;13.23;;;;;;;;;;4982702;28;20061;-79
2024/01/14 12:05:32;;;;;;;26.27;12.93;;;;;;;;;;4994831;28;20050;-79
2024/01/14 12:07:58;;;;;;;28.27;13.40;;;;;;;;;;4983248;28;20030;-79
2024/01/14 12:10:23;;;;;;;26.70;11.02;;;;;;;;;;4994793;28;20026;-79
2024/01/14 12:12:49;;;;;;;28.48;13.38;;;;;;;;;;4995102;28;20423;-80
2024/01/14 12:15:14;;;;;;;31.42;13.68;;;;;;;;;;4971047;28;20133;-79
2024/01/14 12:17:40;;;;;;;;;;;;;;;;;;4990957;28;20504;-79
2024/01/14 12:20:07;;;;;;;28.83;13.68;;;;;;;;;;5002537;28;20410;-78
2024/01/14 12:22:32;;;;;;;32.40;13.82;;;;;;;;;;4980059;28;20029;-79
2024/01/14 12:24:57;;;;;;;28.38;13.65;;;;;;;;;;4999520;28;20030;-80
2024/01/14 12:27:23;;;;;;;26.63;13.40;;;;;;;;;;4993594;28;20605;-79
2024/01/14 12:29:48;;;;;;;27.52;13.60;;;;;;;;;;4990876;28;20034;-81
2024/01/14 12:32:14;;;;;;;26.38;13.18;;;;;;;;;;4990603;28;20045;-81
2024/01/14 12:34:40;;;;;;;30.83;14.20;;;;;;;;;;4975207;28;20030;-81
2024/01/14 12:37:06;;;;;;;28.02;13.70;;;;;;;;;;4990424;28;20050;-80
2024/01/14 12:39:32;;;;;;;34.08;13.73;;;;;;;;;;4992530;28;20037;-80
2024/01/14 12:41:57;;;;;;;28.65;13.85;;;;;;;;;;4991513;28;20022;-81
2024/01/14 12:44:24;;;;;;;29.95;13.90;;;;;;;;;;4993125;28;20391;-80
2024/01/14 12:46:51;;;;;;;29.90;14.07;;;;;;;;;;4994390;28;20358;-79
2024/01/14 12:49:17;;;;;;;27.48;13.20;;;;;;;;;;4980424;28;20074;-80
2024/01/14 12:51:42;;;;;;;28.38;14.02;;;;;;;;;;5000543;28;20054;-80
2024/01/14 12:54:08;;;;;;;;;;;;;;;;;;4996504;28;20041;-80
2024/01/14 12:56:35;;;;;;;27.90;13.77;;;;;;;;;;4996217;28;20549;-80
2024/01/14 12:59:01;;;;;;;32.40;14.43;;;;;;;;;;4996490;28;20030;-79
2024/01/14 13:01:27;;;;;;;32.88;14.82;;;;;;;;;;4986935;28;20028;-81
2024/01/14 13:03:52;;;;;;;;;;;;;;;;;;4980731;28;20089;-80
2024/01/14 13:06:17;;;;;;;32.05;14.23;;;;;;;;;;4999307;28;19964;-80
2024/01/14 13:08:43;;;;;;;28.42;15.10;;;;;;;;;;5000653;28;20041;-79
2024/01/14 13:11:08;;;;;;;29.05;14.45;;;;;;;;;;4998997;28;20026;-80
2024/01/14 13:13:37;;;;;;;;;;;;;;;;;;4993299;28;20175;-79
2024/01/14 13:16:04;;;;;;;28.25;14.60;;;;;;;;;;4997159;28;20336;-80
2024/01/14 13:18:29;;;;;;;33.25;14.07;;;;;;;;;;4996719;28;20378;-80
2024/01/14 13:20:55;;;;;;;32.92;15.40;;;;;;;;;;4991537;28;20029;-80
2024/01/14 13:23:21;;;;;;;29.05;13.85;;;;;;;;;;4975027;28;20041;-80
2024/01/14 13:25:46;;;;;;;34.10;15.20;;;;;;;;;;4992997;28;20109;-80
2024/01/14 13:28:11;;;;;;;;;;;;;;;;;;4990696;28;20038;-79
2024/01/14 13:30:37;;;;;;;31.98;15.10;;;;;;;;;;4991322;28;19910;-80
2024/01/14 13:33:28;;;;;;;30.10;15.90;;;;;;;;;;4982585;28;20042;-80
2024/01/14 13:35:53;;;;;;;30.23;15.93;;;;;;;;;;4989648;28;20054;-81
2024/01/14 13:38:19;;;;;;;;;;;;;;;;;;4966201;28;20034;-79
2024/01/14 13:40:44;;;;;;;36.85;14.60;;;;;;;;;;4996154;28;20410;-80
2024/01/14 13:43:10;;;;;;;33.83;15.23;;;;;;;;;;4989701;28;20165;-80
2024/01/14 13:45:35;;;;;;;;;;;;;;;;;;4991001;28;20029;-80
2024/01/14 13:48:00;;;;;;;35.30;16.13;;;;;;;;;;4991754;28;19913;-80
2024/01/14 13:50:26;;;;;;;;;;;;;;;;;;4993037;28;20108;-79
2024/01/14 13:52:51;;;;;;;45.17;15.77;;;;;;;;;;4992089;28;19972;-81
2024/01/14 13:55:17;;;;;;;;;;;;;;;;;;4994246;28;20025;-80
2024/01/14 13:57:42;;;;;;;72.03;16.30;;;;;;;;;;4991411;28;20340;-80
2024/01/14 14:00:08;;;;;;;;;;;;;;;;;;4994720;28;20097;-79
2024/01/14 14:02:34;;;;;;;33.80;14.88;;;;;;;;;;4992121;28;19917;-80
2024/01/14 14:05:00;;;;;;;37.30;17.13;;;;;;;;;;4998109;28;20708;-79
2024/01/14 14:07:29;;;;;;;35.10;15.88;;;;;;;;;;5000451;28;20057;-82
2024/01/14 14:09:54;;;;;;;36.03;14.80;;;;;;;;;;4981908;28;20026;-79
2024/01/14 14:12:20;;;;;;;32.55;15.38;;;;;;;;;;5001200;28;20034;-81
2024/01/14 14:14:45;;;;;;;38.00;16.35;;;;;;;;;;4993762;28;20049;-82
2024/01/14 14:17:11;;;;;;;;;;;;;;;;;;4976984;28;20034;-79
2024/01/14 14:19:37;;;;;;;35.70;16.67;;;;;;;;;;4993284;28;19914;-82
2024/01/14 14:22:02;;;;;;;33.42;14.82;;;;;;;;;;4992863;28;20049;-79